sensor_id;sensor_type;location;lat;lon;timestamp;temperature;humidity
37530;DHT22;23374;52.758;6.872;2023-03-26T00:02:00;8.50;1.00
37530;DHT22;23374;52.758;6.872;2023-03-26T00:04:23;8.40;1.00
37530;DHT22;23374;52.758;6.872;2023-03-26T00:06:44;8.40;1.00
37530;DHT22;23374;52.758;6.872;2023-03-26T00:09:09;8.40;1.00
37530;DHT22;23374;52.758;6.872;2023-03-26T00:11:32;8.40;1.00
37530;DHT22;23374;52.758;6.872;2023-03-26T00:13:54;8.30;1.00
37530;DHT22;23374;52.758;6.872;2023-03-26T00:16:18;8.30;1.00
37530;DHT22;23374;52.758;6.872;2023-03-26T00:18:43;8.20;1.00
37530;DHT22;23374;52.758;6.872;2023-03-26T00:21:05;8.20;1.00
37530;DHT22;23374;52.758;6.872;2023-03-26T00:23:28;8.20;1.00
37530;DHT22;23374;52.758;6.872;2023-03-26T00:25:50;8.20;1.00
37530;DHT22;23374;52.758;6.872;2023-03-26T00:28:10;8.20;1.00
37530;DHT22;23374;52.758;6.872;2023-03-26T00:30:32;8.20;1.00
37530;DHT22;23374;52.758;6.872;2023-03-26T00:32:52;8.20;1.00
37530;DHT22;23374;52.758;6.872;2023-03-26T00:35:13;8.20;1.00
37530;DHT22;23374;52.758;6.872;2023-03-26T00:37:34;8.20;1.00
37530;DHT22;23374;52.758;6.872;2023-03-26T00:39:56;8.20;1.00
37530;DHT22;23374;52.758;6.872;2023-03-26T00:42:26;8.20;1.00
37530;DHT22;23374;52.758;6.872;2023-03-26T00:44:47;8.20;1.00
37530;DHT22;23374;52.758;6.872;2023-03-26T00:47:10;8.20;1.00
37530;DHT22;23374;52.758;6.872;2023-03-26T00:49:31;8.20;1.00
37530;DHT22;23374;52.758;6.872;2023-03-26T00:51:52;8.20;1.00
37530;DHT22;23374;52.758;6.872;2023-03-26T00:54:12;8.20;1.00
37530;DHT22;23374;52.758;6.872;2023-03-26T00:56:34;8.20;1.00
37530;DHT22;23374;52.758;6.872;2023-03-26T00:58:55;8.30;1.00
37530;DHT22;23374;52.758;6.872;2023-03-26T01:01:22;8.20;1.00
37530;DHT22;23374;52.758;6.872;2023-03-26T01:03:46;8.20;1.00
37530;DHT22;23374;52.758;6.872;2023-03-26T01:06:12;8.20;1.00
37530;DHT22;23374;52.758;6.872;2023-03-26T01:08:51;8.10;1.00
37530;DHT22;23374;52.758;6.872;2023-03-26T01:11:20;8.10;1.00
37530;DHT22;23374;52.758;6.872;2023-03-26T01:13:54;8.10;1.00
37530;DHT22;23374;52.758;6.872;2023-03-26T01:16:42;8.00;1.00
37530;DHT22;23374;52.758;6.872;2023-03-26T01:19:15;8.00;1.00
37530;DHT22;23374;52.758;6.872;2023-03-26T01:21:39;8.00;1.00
37530;DHT22;23374;52.758;6.872;2023-03-26T01:24:06;7.90;1.00
37530;DHT22;23374;52.758;6.872;2023-03-26T01:27:48;7.90;1.00
37530;DHT22;23374;52.758;6.872;2023-03-26T01:30:33;7.90;1.00
37530;DHT22;23374;52.758;6.872;2023-03-26T01:36:41;7.90;1.00
37530;DHT22;23374;52.758;6.872;2023-03-26T01:39:44;7.80;1.00
37530;DHT22;23374;52.758;6.872;2023-03-26T01:42:17;7.70;1.00
37530;DHT22;23374;52.758;6.872;2023-03-26T01:44:58;7.60;1.00
37530;DHT22;23374;52.758;6.872;2023-03-26T01:47:20;7.50;1.00
37530;DHT22;23374;52.758;6.872;2023-03-26T01:49:40;7.40;1.00
37530;DHT22;23374;52.758;6.872;2023-03-26T01:52:00;7.30;1.00
37530;DHT22;23374;52.758;6.872;2023-03-26T01:54:23;7.30;1.00
37530;DHT22;23374;52.758;6.872;2023-03-26T02:01:37;7.20;1.00
37530;DHT22;23374;52.758;6.872;2023-03-26T02:06:50;7.30;1.00
37530;DHT22;23374;52.758;6.872;2023-03-26T02:09:19;7.30;1.00
37530;DHT22;23374;52.758;6.872;2023-03-26T02:11:40;7.40;1.00
37530;DHT22;23374;52.758;6.872;2023-03-26T02:14:04;7.40;1.00
37530;DHT22;23374;52.758;6.872;2023-03-26T02:16:27;7.40;1.00
37530;DHT22;23374;52.758;6.872;2023-03-26T02:18:48;7.50;1.00
37530;DHT22;23374;52.758;6.872;2023-03-26T02:21:18;7.50;1.00
37530;DHT22;23374;52.758;6.872;2023-03-26T02:23:43;7.60;1.00
37530;DHT22;23374;52.758;6.872;2023-03-26T02:26:10;7.60;1.00
37530;DHT22;23374;52.758;6.872;2023-03-26T02:28:30;7.60;1.00
37530;DHT22;23374;52.758;6.872;2023-03-26T02:30:51;7.70;1.00
37530;DHT22;23374;52.758;6.872;2023-03-26T02:33:16;7.70;1.00
37530;DHT22;23374;52.758;6.872;2023-03-26T02:35:36;7.70;1.00
37530;DHT22;23374;52.758;6.872;2023-03-26T02:37:57;7.70;1.00
37530;DHT22;23374;52.758;6.872;2023-03-26T02:40:18;7.70;1.00
37530;DHT22;23374;52.758;6.872;2023-03-26T02:42:41;7.80;1.00
37530;DHT22;23374;52.758;6.872;2023-03-26T02:44:58;7.80;1.00
37530;DHT22;23374;52.758;6.872;2023-03-26T02:47:18;7.80;1.00
37530;DHT22;23374;52.758;6.872;2023-03-26T02:49:39;7.80;1.00
37530;DHT22;23374;52.758;6.872;2023-03-26T02:52:00;7.90;1.00
37530;DHT22;23374;52.758;6.872;2023-03-26T02:54:22;7.90;1.00
37530;DHT22;23374;52.758;6.872;2023-03-26T02:56:42;7.90;1.00
37530;DHT22;23374;52.758;6.872;2023-03-26T02:59:02;7.90;1.00
37530;DHT22;23374;52.758;6.872;2023-03-26T03:01:23;7.90;1.00
37530;DHT22;23374;52.758;6.872;2023-03-26T03:03:44;7.90;1.00
37530;DHT22;23374;52.758;6.872;2023-03-26T03:06:06;7.90;1.00
37530;DHT22;23374;52.758;6.872;2023-03-26T03:08:28;7.90;1.00
37530;DHT22;23374;52.758;6.872;2023-03-26T03:11:00;7.90;1.00
37530;DHT22;23374;52.758;6.872;2023-03-26T03:13:20;7.90;1.00
37530;DHT22;23374;52.758;6.872;2023-03-26T03:15:41;7.90;1.00
37530;DHT22;23374;52.758;6.872;2023-03-26T03:18:02;7.90;1.00
37530;DHT22;23374;52.758;6.872;2023-03-26T03:20:22;7.90;1.00
37530;DHT22;23374;52.758;6.872;2023-03-26T03:22:43;7.90;1.00
37530;DHT22;23374;52.758;6.872;2023-03-26T03:25:04;8.00;1.00
37530;DHT22;23374;52.758;6.872;2023-03-26T03:27:28;8.00;1.00
37530;DHT22;23374;52.758;6.872;2023-03-26T03:29:48;8.00;1.00
37530;DHT22;23374;52.758;6.872;2023-03-26T03:32:08;8.00;1.00
37530;DHT22;23374;52.758;6.872;2023-03-26T03:34:29;8.00;1.00
37530;DHT22;23374;52.758;6.872;2023-03-26T03:36:50;8.00;1.00
37530;DHT22;23374;52.758;6.872;2023-03-26T03:39:10;8.00;1.00
37530;DHT22;23374;52.758;6.872;2023-03-26T03:41:30;8.00;1.00
37530;DHT22;23374;52.758;6.872;2023-03-26T03:43:51;8.00;1.00
37530;DHT22;23374;52.758;6.872;2023-03-26T03:46:11;8.00;1.00
37530;DHT22;23374;52.758;6.872;2023-03-26T03:48:31;7.90;1.00
37530;DHT22;23374;52.758;6.872;2023-03-26T03:50:53;7.90;1.00
37530;DHT22;23374;52.758;6.872;2023-03-26T03:53:13;7.80;1.00
37530;DHT22;23374;52.758;6.872;2023-03-26T03:55:35;7.80;1.00
37530;DHT22;23374;52.758;6.872;2023-03-26T03:57:57;7.80;1.00
37530;DHT22;23374;52.758;6.872;2023-03-26T04:00:17;7.70;1.00
37530;DHT22;23374;52.758;6.872;2023-03-26T04:02:38;7.70;1.00
37530;DHT22;23374;52.758;6.872;2023-03-26T04:05:03;7.60;1.00
37530;DHT22;23374;52.758;6.872;2023-03-26T04:07:24;7.60;1.00
37530;DHT22;23374;52.758;6.872;2023-03-26T04:09:45;7.60;1.00
37530;DHT22;23374;52.758;6.872;2023-03-26T04:12:06;7.50;1.00
37530;DHT22;23374;52.758;6.872;2023-03-26T04:14:26;7.40;1.00
37530;DHT22;23374;52.758;6.872;2023-03-26T04:16:46;7.40;1.00
37530;DHT22;23374;52.758;6.872;2023-03-26T04:19:08;7.30;1.00
37530;DHT22;23374;52.758;6.872;2023-03-26T04:21:28;7.30;1.00
37530;DHT22;23374;52.758;6.872;2023-03-26T04:23:49;7.30;1.00
37530;DHT22;23374;52.758;6.872;2023-03-26T04:26:15;7.20;1.00
37530;DHT22;23374;52.758;6.872;2023-03-26T04:29:11;7.20;1.00
37530;DHT22;23374;52.758;6.872;2023-03-26T04:31:36;7.30;1.00
37530;DHT22;23374;52.758;6.872;2023-03-26T04:34:07;7.20;1.00
37530;DHT22;23374;52.758;6.872;2023-03-26T04:36:33;7.20;1.00
37530;DHT22;23374;52.758;6.872;2023-03-26T04:38:55;7.20;1.00
37530;DHT22;23374;52.758;6.872;2023-03-26T04:41:17;7.20;1.00
37530;DHT22;23374;52.758;6.872;2023-03-26T04:43:38;7.20;1.00
37530;DHT22;23374;52.758;6.872;2023-03-26T04:46:01;7.20;1.00
37530;DHT22;23374;52.758;6.872;2023-03-26T04:48:22;7.20;1.00
37530;DHT22;23374;52.758;6.872;2023-03-26T04:50:44;7.20;1.00
37530;DHT22;23374;52.758;6.872;2023-03-26T04:53:04;7.20;1.00
37530;DHT22;23374;52.758;6.872;2023-03-26T04:55:44;7.20;1.00
37530;DHT22;23374;52.758;6.872;2023-03-26T04:58:05;7.30;1.00
37530;DHT22;23374;52.758;6.872;2023-03-26T05:00:25;7.30;1.00
37530;DHT22;23374;52.758;6.872;2023-03-26T05:02:46;7.30;1.00
37530;DHT22;23374;52.758;6.872;2023-03-26T05:05:09;7.30;1.00
37530;DHT22;23374;52.758;6.872;2023-03-26T05:07:30;7.30;1.00
37530;DHT22;23374;52.758;6.872;2023-03-26T05:09:50;7.30;1.00
37530;DHT22;23374;52.758;6.872;2023-03-26T05:12:11;7.30;1.00
37530;DHT22;23374;52.758;6.872;2023-03-26T05:14:32;7.40;1.00
37530;DHT22;23374;52.758;6.872;2023-03-26T05:16:52;7.40;1.00
37530;DHT22;23374;52.758;6.872;2023-03-26T05:19:13;7.40;1.00
37530;DHT22;23374;52.758;6.872;2023-03-26T05:21:34;7.40;1.00
37530;DHT22;23374;52.758;6.872;2023-03-26T05:23:54;7.40;1.00
37530;DHT22;23374;52.758;6.872;2023-03-26T05:26:15;7.50;1.00
37530;DHT22;23374;52.758;6.872;2023-03-26T05:28:36;7.50;1.00
37530;DHT22;23374;52.758;6.872;2023-03-26T05:30:59;7.50;1.00
37530;DHT22;23374;52.758;6.872;2023-03-26T05:33:21;7.50;1.00
37530;DHT22;23374;52.758;6.872;2023-03-26T05:35:42;7.50;1.00
37530;DHT22;23374;52.758;6.872;2023-03-26T05:38:02;7.50;1.00
37530;DHT22;23374;52.758;6.872;2023-03-26T05:40:22;7.60;1.00
37530;DHT22;23374;52.758;6.872;2023-03-26T05:42:43;7.60;1.00
37530;DHT22;23374;52.758;6.872;2023-03-26T05:45:07;7.60;1.00
37530;DHT22;23374;52.758;6.872;2023-03-26T05:47:28;7.60;1.00
37530;DHT22;23374;52.758;6.872;2023-03-26T05:49:48;7.60;1.00
37530;DHT22;23374;52.758;6.872;2023-03-26T05:52:08;7.70;1.00
37530;DHT22;23374;52.758;6.872;2023-03-26T05:54:29;7.70;1.00
37530;DHT22;23374;52.758;6.872;2023-03-26T05:56:49;7.70;1.00
37530;DHT22;23374;52.758;6.872;2023-03-26T05:59:10;7.80;1.00
37530;DHT22;23374;52.758;6.872;2023-03-26T06:01:30;7.80;1.00
37530;DHT22;23374;52.758;6.872;2023-03-26T06:03:51;7.80;1.00
37530;DHT22;23374;52.758;6.872;2023-03-26T06:06:15;7.80;1.00
37530;DHT22;23374;52.758;6.872;2023-03-26T06:08:36;7.80;1.00
37530;DHT22;23374;52.758;6.872;2023-03-26T06:10:59;7.80;1.00
37530;DHT22;23374;52.758;6.872;2023-03-26T06:13:20;7.80;1.00
37530;DHT22;23374;52.758;6.872;2023-03-26T06:15:40;7.80;1.00
37530;DHT22;23374;52.758;6.872;2023-03-26T06:18:00;7.80;1.00
37530;DHT22;23374;52.758;6.872;2023-03-26T06:20:21;7.80;1.00
37530;DHT22;23374;52.758;6.872;2023-03-26T06:22:41;7.80;1.00
37530;DHT22;23374;52.758;6.872;2023-03-26T06:25:02;7.90;1.00
37530;DHT22;23374;52.758;6.872;2023-03-26T06:27:22;7.90;1.00
37530;DHT22;23374;52.758;6.872;2023-03-26T06:29:43;7.90;1.00
37530;DHT22;23374;52.758;6.872;2023-03-26T06:32:03;7.90;1.00
37530;DHT22;23374;52.758;6.872;2023-03-26T06:34:23;7.90;1.00
37530;DHT22;23374;52.758;6.872;2023-03-26T06:36:44;7.90;1.00
37530;DHT22;23374;52.758;6.872;2023-03-26T06:39:05;8.00;1.00
37530;DHT22;23374;52.758;6.872;2023-03-26T06:41:25;8.00;1.00
37530;DHT22;23374;52.758;6.872;2023-03-26T06:43:45;8.00;1.00
37530;DHT22;23374;52.758;6.872;2023-03-26T06:46:06;8.00;1.00
37530;DHT22;23374;52.758;6.872;2023-03-26T06:48:26;8.00;1.00
37530;DHT22;23374;52.758;6.872;2023-03-26T06:50:46;8.00;1.00
37530;DHT22;23374;52.758;6.872;2023-03-26T06:53:07;8.00;1.00
37530;DHT22;23374;52.758;6.872;2023-03-26T06:55:27;8.00;1.00
37530;DHT22;23374;52.758;6.872;2023-03-26T06:57:52;8.00;1.00
37530;DHT22;23374;52.758;6.872;2023-03-26T07:00:14;8.00;1.00
37530;DHT22;23374;52.758;6.872;2023-03-26T07:02:35;8.00;1.00
37530;DHT22;23374;52.758;6.872;2023-03-26T07:04:55;8.00;1.00
37530;DHT22;23374;52.758;6.872;2023-03-26T07:07:15;8.00;1.00
37530;DHT22;23374;52.758;6.872;2023-03-26T07:09:37;8.00;1.00
37530;DHT22;23374;52.758;6.872;2023-03-26T07:11:58;8.00;1.00
37530;DHT22;23374;52.758;6.872;2023-03-26T07:14:18;8.00;1.00
37530;DHT22;23374;52.758;6.872;2023-03-26T07:16:38;8.00;1.00
37530;DHT22;23374;52.758;6.872;2023-03-26T07:18:58;8.10;1.00
37530;DHT22;23374;52.758;6.872;2023-03-26T07:21:20;8.10;1.00
37530;DHT22;23374;52.758;6.872;2023-03-26T07:23:41;8.10;1.00
37530;DHT22;23374;52.758;6.872;2023-03-26T07:27:59;8.10;1.00
37530;DHT22;23374;52.758;6.872;2023-03-26T07:44:57;8.10;1.00
37530;DHT22;23374;52.758;6.872;2023-03-26T07:47:28;8.20;99.90
37530;DHT22;23374;52.758;6.872;2023-03-26T07:49:55;8.20;65.80
37530;DHT22;23374;52.758;6.872;2023-03-26T07:52:19;8.20;1.00
37530;DHT22;23374;52.758;6.872;2023-03-26T07:54:40;8.20;1.00
37530;DHT22;23374;52.758;6.872;2023-03-26T07:57:11;8.20;96.00
37530;DHT22;23374;52.758;6.872;2023-03-26T07:59:39;8.30;99.90
37530;DHT22;23374;52.758;6.872;2023-03-26T08:12:36;8.40;99.90
37530;DHT22;23374;52.758;6.872;2023-03-26T08:16:13;8.40;99.90
37530;DHT22;23374;52.758;6.872;2023-03-26T08:19:44;8.40;1.00
37530;DHT22;23374;52.758;6.872;2023-03-26T08:22:18;8.40;99.90
37530;DHT22;23374;52.758;6.872;2023-03-26T08:25:30;8.30;1.00
37530;DHT22;23374;52.758;6.872;2023-03-26T08:33:36;8.10;99.90
37530;DHT22;23374;52.758;6.872;2023-03-26T08:35:59;8.10;99.90
37530;DHT22;23374;52.758;6.872;2023-03-26T08:38:20;8.10;99.90
37530;DHT22;23374;52.758;6.872;2023-03-26T08:43:56;8.10;1.00
37530;DHT22;23374;52.758;6.872;2023-03-26T08:46:59;8.20;1.00
37530;DHT22;23374;52.758;6.872;2023-03-26T08:59:52;8.20;1.00
37530;DHT22;23374;52.758;6.872;2023-03-26T09:03:58;8.30;1.00
37530;DHT22;23374;52.758;6.872;2023-03-26T09:10:34;8.40;99.90
37530;DHT22;23374;52.758;6.872;2023-03-26T09:13:55;8.50;1.00
37530;DHT22;23374;52.758;6.872;2023-03-26T09:17:32;8.70;1.00
37530;DHT22;23374;52.758;6.872;2023-03-26T09:28:49;8.80;99.90
37530;DHT22;23374;52.758;6.872;2023-03-26T09:35:58;8.80;99.90
37530;DHT22;23374;52.758;6.872;2023-03-26T09:38:42;8.80;99.90
37530;DHT22;23374;52.758;6.872;2023-03-26T09:41:16;8.70;99.40
37530;DHT22;23374;52.758;6.872;2023-03-26T10:18:34;8.90;99.90
37530;DHT22;23374;52.758;6.872;2023-03-26T10:26:23;9.10;90.00
37530;DHT22;23374;52.758;6.872;2023-03-26T10:32:12;9.10;76.40
37530;DHT22;23374;52.758;6.872;2023-03-26T10:42:04;9.10;1.00
37530;DHT22;23374;52.758;6.872;2023-03-26T10:47:13;9.20;1.00
37530;DHT22;23374;52.758;6.872;2023-03-26T10:52:43;9.30;1.00
37530;DHT22;23374;52.758;6.872;2023-03-26T10:55:26;9.40;1.00
37530;DHT22;23374;52.758;6.872;2023-03-26T10:58:21;9.40;1.00
37530;DHT22;23374;52.758;6.872;2023-03-26T11:01:03;9.50;1.00
37530;DHT22;23374;52.758;6.872;2023-03-26T11:07:20;9.50;1.00
37530;DHT22;23374;52.758;6.872;2023-03-26T11:10:03;9.60;1.00
37530;DHT22;23374;52.758;6.872;2023-03-26T11:13:27;9.60;1.00
37530;DHT22;23374;52.758;6.872;2023-03-26T11:19:19;9.50;1.00
37530;DHT22;23374;52.758;6.872;2023-03-26T11:22:11;9.70;1.00
37530;DHT22;23374;52.758;6.872;2023-03-26T11:33:36;9.50;1.00
37530;DHT22;23374;52.758;6.872;2023-03-26T11:36:04;9.60;1.00
37530;DHT22;23374;52.758;6.872;2023-03-26T11:38:50;9.60;1.00
37530;DHT22;23374;52.758;6.872;2023-03-26T11:41:20;9.50;1.00
37530;DHT22;23374;52.758;6.872;2023-03-26T11:43:43;9.60;1.00
37530;DHT22;23374;52.758;6.872;2023-03-26T11:46:11;9.60;1.00
37530;DHT22;23374;52.758;6.872;2023-03-26T11:48:40;9.50;1.00
37530;DHT22;23374;52.758;6.872;2023-03-26T11:57:12;9.40;1.00
37530;DHT22;23374;52.758;6.872;2023-03-26T12:01:49;9.40;1.00
37530;DHT22;23374;52.758;6.872;2023-03-26T12:04:13;9.40;99.90
37530;DHT22;23374;52.758;6.872;2023-03-26T12:06:34;9.50;1.00
37530;DHT22;23374;52.758;6.872;2023-03-26T12:08:55;9.50;1.00
37530;DHT22;23374;52.758;6.872;2023-03-26T12:11:17;9.50;99.90
37530;DHT22;23374;52.758;6.872;2023-03-26T12:13:50;9.60;1.00
37530;DHT22;23374;52.758;6.872;2023-03-26T12:16:18;9.60;99.90
37530;DHT22;23374;52.758;6.872;2023-03-26T12:18:41;9.70;99.90
37530;DHT22;23374;52.758;6.872;2023-03-26T12:21:18;9.70;99.90
37530;DHT22;23374;52.758;6.872;2023-03-26T12:25:32;9.70;1.00
37530;DHT22;23374;52.758;6.872;2023-03-26T12:28:17;9.80;99.90
37530;DHT22;23374;52.758;6.872;2023-03-26T12:30:39;9.80;99.90
37530;DHT22;23374;52.758;6.872;2023-03-26T12:33:04;9.80;99.90
37530;DHT22;23374;52.758;6.872;2023-03-26T12:35:27;9.80;99.90
37530;DHT22;23374;52.758;6.872;2023-03-26T12:37:49;9.80;1.00
37530;DHT22;23374;52.758;6.872;2023-03-26T12:42:01;9.80;1.00
37530;DHT22;23374;52.758;6.872;2023-03-26T12:44:48;9.80;99.90
37530;DHT22;23374;52.758;6.872;2023-03-26T12:47:21;9.80;99.90
37530;DHT22;23374;52.758;6.872;2023-03-26T12:49:43;9.80;99.90
37530;DHT22;23374;52.758;6.872;2023-03-26T12:56:00;9.70;99.90
37530;DHT22;23374;52.758;6.872;2023-03-26T13:07:33;9.70;99.90
37530;DHT22;23374;52.758;6.872;2023-03-26T13:20:48;9.70;99.90
37530;DHT22;23374;52.758;6.872;2023-03-26T13:24:51;9.50;99.90
37530;DHT22;23374;52.758;6.872;2023-03-26T13:32:12;9.50;99.90
37530;DHT22;23374;52.758;6.872;2023-03-26T13:37:06;9.50;99.90
37530;DHT22;23374;52.758;6.872;2023-03-26T13:42:51;9.40;99.90
37530;DHT22;23374;52.758;6.872;2023-03-26T13:46:26;9.40;99.90
37530;DHT22;23374;52.758;6.872;2023-03-26T13:49:13;9.40;99.90
37530;DHT22;23374;52.758;6.872;2023-03-26T13:51:51;9.30;82.60
37530;DHT22;23374;52.758;6.872;2023-03-26T13:57:08;9.30;68.70
37530;DHT22;23374;52.758;6.872;2023-03-26T13:59:43;9.40;99.90
37530;DHT22;23374;52.758;6.872;2023-03-26T14:02:12;9.40;99.90
37530;DHT22;23374;52.758;6.872;2023-03-26T14:04:48;9.50;99.90
37530;DHT22;23374;52.758;6.872;2023-03-26T14:07:17;9.50;99.90
37530;DHT22;23374;52.758;6.872;2023-03-26T14:10:09;9.50;99.90
37530;DHT22;23374;52.758;6.872;2023-03-26T14:13:09;9.40;65.60
37530;DHT22;23374;52.758;6.872;2023-03-26T14:15:48;9.50;99.90
37530;DHT22;23374;52.758;6.872;2023-03-26T14:19:17;9.50;98.60
37530;DHT22;23374;52.758;6.872;2023-03-26T14:24:56;9.60;42.60
37530;DHT22;23374;52.758;6.872;2023-03-26T14:27:45;9.60;99.90
37530;DHT22;23374;52.758;6.872;2023-03-26T14:48:55;9.20;20.90
37530;DHT22;23374;52.758;6.872;2023-03-26T14:53:27;9.10;30.20
37530;DHT22;23374;52.758;6.872;2023-03-26T15:27:36;9.10;99.90
37530;DHT22;23374;52.758;6.872;2023-03-26T15:39:29;9.00;99.90
37530;DHT22;23374;52.758;6.872;2023-03-26T15:42:18;8.80;99.90
37530;DHT22;23374;52.758;6.872;2023-03-26T15:49:03;9.00;99.90
37530;DHT22;23374;52.758;6.872;2023-03-26T15:59:17;8.80;99.90
37530;DHT22;23374;52.758;6.872;2023-03-26T16:13:49;8.60;43.20
37530;DHT22;23374;52.758;6.872;2023-03-26T16:17:04;8.60;99.90
37530;DHT22;23374;52.758;6.872;2023-03-26T16:19:34;8.60;37.10
37530;DHT22;23374;52.758;6.872;2023-03-26T16:22:06;8.50;92.60
37530;DHT22;23374;52.758;6.872;2023-03-26T16:24:33;8.50;84.40
37530;DHT22;23374;52.758;6.872;2023-03-26T16:33:56;8.50;99.90
37530;DHT22;23374;52.758;6.872;2023-03-26T16:36:41;8.40;57.60
37530;DHT22;23374;52.758;6.872;2023-03-26T16:39:39;8.40;99.90
37530;DHT22;23374;52.758;6.872;2023-03-26T16:42:07;8.40;99.90
37530;DHT22;23374;52.758;6.872;2023-03-26T17:01:04;8.30;99.90
37530;DHT22;23374;52.758;6.872;2023-03-26T17:04:16;8.10;99.90
37530;DHT22;23374;52.758;6.872;2023-03-26T17:16:45;7.80;99.90
37530;DHT22;23374;52.758;6.872;2023-03-26T17:22:02;7.60;99.90
37530;DHT22;23374;52.758;6.872;2023-03-26T17:30:45;7.50;99.90
37530;DHT22;23374;52.758;6.872;2023-03-26T17:33:35;7.40;99.90
37530;DHT22;23374;52.758;6.872;2023-03-26T17:36:28;7.30;99.90
37530;DHT22;23374;52.758;6.872;2023-03-26T17:38:58;7.30;99.90
37530;DHT22;23374;52.758;6.872;2023-03-26T17:41:53;7.20;99.90
37530;DHT22;23374;52.758;6.872;2023-03-26T17:44:42;7.20;99.90
37530;DHT22;23374;52.758;6.872;2023-03-26T17:47:13;7.20;99.90
37530;DHT22;23374;52.758;6.872;2023-03-26T17:49:35;7.10;99.90
37530;DHT22;23374;52.758;6.872;2023-03-26T17:52:19;7.10;99.90
37530;DHT22;23374;52.758;6.872;2023-03-26T17:54:46;7.10;99.90
37530;DHT22;23374;52.758;6.872;2023-03-26T17:58:29;7.10;99.90
37530;DHT22;23374;52.758;6.872;2023-03-26T18:17:46;6.90;99.90
37530;DHT22;23374;52.758;6.872;2023-03-26T18:20:24;6.80;99.90
37530;DHT22;23374;52.758;6.872;2023-03-26T18:22:46;6.70;99.90
37530;DHT22;23374;52.758;6.872;2023-03-26T18:25:37;6.70;99.90
37530;DHT22;23374;52.758;6.872;2023-03-26T18:28:00;6.70;99.90
37530;DHT22;23374;52.758;6.872;2023-03-26T18:30:24;6.70;99.90
37530;DHT22;23374;52.758;6.872;2023-03-26T18:33:10;6.60;99.90
37530;DHT22;23374;52.758;6.872;2023-03-26T18:35:49;6.60;99.90
37530;DHT22;23374;52.758;6.872;2023-03-26T18:38:23;6.60;99.90
37530;DHT22;23374;52.758;6.872;2023-03-26T18:40:44;6.50;99.90
37530;DHT22;23374;52.758;6.872;2023-03-26T18:43:13;6.50;99.90
37530;DHT22;23374;52.758;6.872;2023-03-26T18:45:38;6.50;99.90
37530;DHT22;23374;52.758;6.872;2023-03-26T18:48:18;6.50;99.90
37530;DHT22;23374;52.758;6.872;2023-03-26T18:50:40;6.50;99.90
37530;DHT22;23374;52.758;6.872;2023-03-26T18:53:04;6.50;99.90
37530;DHT22;23374;52.758;6.872;2023-03-26T18:55:33;6.50;99.90
37530;DHT22;23374;52.758;6.872;2023-03-26T18:57:58;6.50;99.90
37530;DHT22;23374;52.758;6.872;2023-03-26T19:00:25;6.50;99.90
37530;DHT22;23374;52.758;6.872;2023-03-26T19:02:53;6.40;99.90
37530;DHT22;23374;52.758;6.872;2023-03-26T19:05:17;6.40;99.90
37530;DHT22;23374;52.758;6.872;2023-03-26T19:07:38;6.50;99.90
37530;DHT22;23374;52.758;6.872;2023-03-26T19:09:59;6.40;99.90
37530;DHT22;23374;52.758;6.872;2023-03-26T19:12:29;6.40;99.90
37530;DHT22;23374;52.758;6.872;2023-03-26T19:15:14;6.40;99.90
37530;DHT22;23374;52.758;6.872;2023-03-26T19:17:47;6.40;99.90
37530;DHT22;23374;52.758;6.872;2023-03-26T19:20:18;6.40;99.90
37530;DHT22;23374;52.758;6.872;2023-03-26T19:22:41;6.40;99.90
37530;DHT22;23374;52.758;6.872;2023-03-26T19:25:05;6.40;99.90
37530;DHT22;23374;52.758;6.872;2023-03-26T19:27:25;6.40;99.90
37530;DHT22;23374;52.758;6.872;2023-03-26T19:29:46;6.40;99.90
37530;DHT22;23374;52.758;6.872;2023-03-26T19:32:28;6.40;99.90
37530;DHT22;23374;52.758;6.872;2023-03-26T19:34:52;6.30;99.90
37530;DHT22;23374;52.758;6.872;2023-03-26T19:37:25;6.30;99.90
37530;DHT22;23374;52.758;6.872;2023-03-26T19:39:52;6.30;99.90
37530;DHT22;23374;52.758;6.872;2023-03-26T19:42:29;6.30;99.90
37530;DHT22;23374;52.758;6.872;2023-03-26T19:44:51;6.30;99.90
37530;DHT22;23374;52.758;6.872;2023-03-26T19:47:39;6.30;99.90
37530;DHT22;23374;52.758;6.872;2023-03-26T19:50:26;6.30;99.90
37530;DHT22;23374;52.758;6.872;2023-03-26T19:53:23;6.40;99.90
37530;DHT22;23374;52.758;6.872;2023-03-26T19:56:31;6.30;99.90
37530;DHT22;23374;52.758;6.872;2023-03-26T19:58:53;6.30;99.90
37530;DHT22;23374;52.758;6.872;2023-03-26T20:01:26;6.20;99.90
37530;DHT22;23374;52.758;6.872;2023-03-26T20:03:54;6.20;1.00
37530;DHT22;23374;52.758;6.872;2023-03-26T20:06:19;6.10;99.90
37530;DHT22;23374;52.758;6.872;2023-03-26T20:08:40;6.10;1.00
37530;DHT22;23374;52.758;6.872;2023-03-26T20:11:00;6.00;1.00
37530;DHT22;23374;52.758;6.872;2023-03-26T20:13:20;6.00;99.90
37530;DHT22;23374;52.758;6.872;2023-03-26T20:15:53;6.00;1.00
37530;DHT22;23374;52.758;6.872;2023-03-26T20:18:16;5.90;1.00
37530;DHT22;23374;52.758;6.872;2023-03-26T20:20:37;5.90;1.00
37530;DHT22;23374;52.758;6.872;2023-03-26T20:22:58;5.90;1.00
37530;DHT22;23374;52.758;6.872;2023-03-26T20:25:42;5.90;1.00
37530;DHT22;23374;52.758;6.872;2023-03-26T20:28:05;5.90;99.90
37530;DHT22;23374;52.758;6.872;2023-03-26T20:30:28;5.90;1.00
37530;DHT22;23374;52.758;6.872;2023-03-26T20:32:49;5.90;1.00
37530;DHT22;23374;52.758;6.872;2023-03-26T20:35:20;5.80;1.00
37530;DHT22;23374;52.758;6.872;2023-03-26T20:37:41;5.90;1.00
37530;DHT22;23374;52.758;6.872;2023-03-26T20:40:06;5.80;1.00
37530;DHT22;23374;52.758;6.872;2023-03-26T20:42:27;5.80;1.00
37530;DHT22;23374;52.758;6.872;2023-03-26T20:44:47;5.90;1.00
37530;DHT22;23374;52.758;6.872;2023-03-26T20:47:09;5.90;1.00
37530;DHT22;23374;52.758;6.872;2023-03-26T20:49:30;5.90;1.00
37530;DHT22;23374;52.758;6.872;2023-03-26T20:51:51;5.90;1.00
37530;DHT22;23374;52.758;6.872;2023-03-26T20:54:18;5.90;1.00
37530;DHT22;23374;52.758;6.872;2023-03-26T20:56:39;5.90;1.00
37530;DHT22;23374;52.758;6.872;2023-03-26T20:59:02;5.90;1.00
37530;DHT22;23374;52.758;6.872;2023-03-26T21:01:24;5.90;1.00
37530;DHT22;23374;52.758;6.872;2023-03-26T21:03:44;5.90;1.00
37530;DHT22;23374;52.758;6.872;2023-03-26T21:06:09;5.90;1.00
37530;DHT22;23374;52.758;6.872;2023-03-26T21:08:33;5.90;1.00
37530;DHT22;23374;52.758;6.872;2023-03-26T21:10:53;5.90;1.00
37530;DHT22;23374;52.758;6.872;2023-03-26T21:13:39;5.80;1.00
37530;DHT22;23374;52.758;6.872;2023-03-26T21:16:04;5.70;99.90
37530;DHT22;23374;52.758;6.872;2023-03-26T21:18:25;5.70;1.00
37530;DHT22;23374;52.758;6.872;2023-03-26T21:20:56;5.70;1.00
37530;DHT22;23374;52.758;6.872;2023-03-26T21:23:28;5.60;1.00
37530;DHT22;23374;52.758;6.872;2023-03-26T21:26:13;5.60;1.00
37530;DHT22;23374;52.758;6.872;2023-03-26T21:28:47;5.50;1.00
37530;DHT22;23374;52.758;6.872;2023-03-26T21:31:15;5.50;1.00
37530;DHT22;23374;52.758;6.872;2023-03-26T21:33:37;5.50;1.00
37530;DHT22;23374;52.758;6.872;2023-03-26T21:35:59;5.50;1.00
37530;DHT22;23374;52.758;6.872;2023-03-26T21:38:20;5.40;1.00
37530;DHT22;23374;52.758;6.872;2023-03-26T21:40:41;5.40;1.00
37530;DHT22;23374;52.758;6.872;2023-03-26T21:43:03;5.40;1.00
37530;DHT22;23374;52.758;6.872;2023-03-26T21:45:24;5.40;1.00
37530;DHT22;23374;52.758;6.872;2023-03-26T21:47:48;5.30;1.00
37530;DHT22;23374;52.758;6.872;2023-03-26T21:50:12;5.30;1.00
37530;DHT22;23374;52.758;6.872;2023-03-26T21:52:34;5.30;1.00
37530;DHT22;23374;52.758;6.872;2023-03-26T21:54:55;5.20;1.00